sensor_id;sensor_type;location;lat;lon;timestamp;temperature;humidity
14682;DHT22;7429;52.498;13.480;2023-01-01T00:00:58;15.60;99.90
14682;DHT22;7429;52.498;13.480;2023-01-01T00:04:01;15.60;99.90
14682;DHT22;7429;52.498;13.480;2023-01-01T00:07:04;15.60;99.90
14682;DHT22;7429;52.498;13.480;2023-01-01T00:10:10;15.50;99.90
14682;DHT22;7429;52.498;13.480;2023-01-01T00:13:35;15.50;99.90
14682;DHT22;7429;52.498;13.480;2023-01-01T00:16:41;15.60;99.90
14682;DHT22;7429;52.498;13.480;2023-01-01T00:19:45;15.70;99.90
14682;DHT22;7429;52.498;13.480;2023-01-01T00:22:53;15.50;99.90
14682;DHT22;7429;52.498;13.480;2023-01-01T00:25:57;15.60;99.90
14682;DHT22;7429;52.498;13.480;2023-01-01T00:29:03;15.60;99.90
14682;DHT22;7429;52.498;13.480;2023-01-01T00:32:08;15.60;99.90
14682;DHT22;7429;52.498;13.480;2023-01-01T00:35:17;15.60;99.90
14682;DHT22;7429;52.498;13.480;2023-01-01T00:38:20;15.50;99.90
14682;DHT22;7429;52.498;13.480;2023-01-01T00:41:23;15.50;99.90
14682;DHT22;7429;52.498;13.480;2023-01-01T00:44:28;15.50;99.90
14682;DHT22;7429;52.498;13.480;2023-01-01T00:47:31;15.50;99.90
14682;DHT22;7429;52.498;13.480;2023-01-01T00:50:35;15.50;99.90
14682;DHT22;7429;52.498;13.480;2023-01-01T00:53:39;15.50;99.90
14682;DHT22;7429;52.498;13.480;2023-01-01T00:56:43;15.60;99.90
14682;DHT22;7429;52.498;13.480;2023-01-01T00:59:47;15.50;99.90
14682;DHT22;7429;52.498;13.480;2023-01-01T01:02:51;15.50;99.90
14682;DHT22;7429;52.498;13.480;2023-01-01T01:05:57;15.40;99.90
14682;DHT22;7429;52.498;13.480;2023-01-01T01:09:01;15.50;99.90
14682;DHT22;7429;52.498;13.480;2023-01-01T01:12:06;15.50;99.90
14682;DHT22;7429;52.498;13.480;2023-01-01T01:15:21;15.50;99.90
14682;DHT22;7429;52.498;13.480;2023-01-01T01:18:24;15.60;99.90
14682;DHT22;7429;52.498;13.480;2023-01-01T01:21:29;15.60;99.90
14682;DHT22;7429;52.498;13.480;2023-01-01T01:24:33;15.60;99.90
14682;DHT22;7429;52.498;13.480;2023-01-01T01:27:37;15.60;99.90
14682;DHT22;7429;52.498;13.480;2023-01-01T01:30:41;15.50;99.90
14682;DHT22;7429;52.498;13.480;2023-01-01T01:33:45;15.50;99.90
14682;DHT22;7429;52.498;13.480;2023-01-01T01:36:49;15.50;99.90
14682;DHT22;7429;52.498;13.480;2023-01-01T01:39:54;15.50;99.90
14682;DHT22;7429;52.498;13.480;2023-01-01T01:42:57;15.40;99.90
14682;DHT22;7429;52.498;13.480;2023-01-01T01:46:07;15.40;99.90
14682;DHT22;7429;52.498;13.480;2023-01-01T01:49:27;15.40;99.90
14682;DHT22;7429;52.498;13.480;2023-01-01T01:52:34;15.50;99.90
14682;DHT22;7429;52.498;13.480;2023-01-01T01:55:44;15.50;99.90
14682;DHT22;7429;52.498;13.480;2023-01-01T01:58:49;15.50;99.90
14682;DHT22;7429;52.498;13.480;2023-01-01T02:01:58;15.50;99.90
14682;DHT22;7429;52.498;13.480;2023-01-01T02:05:03;15.40;99.90
14682;DHT22;7429;52.498;13.480;2023-01-01T02:08:07;15.50;99.90
14682;DHT22;7429;52.498;13.480;2023-01-01T02:11:13;15.50;99.90
14682;DHT22;7429;52.498;13.480;2023-01-01T02:14:22;15.40;99.90
14682;DHT22;7429;52.498;13.480;2023-01-01T02:17:32;15.50;99.90
14682;DHT22;7429;52.498;13.480;2023-01-01T02:20:45;15.50;99.90
14682;DHT22;7429;52.498;13.480;2023-01-01T02:24:14;15.50;99.90
14682;DHT22;7429;52.498;13.480;2023-01-01T02:27:27;15.60;99.90
14682;DHT22;7429;52.498;13.480;2023-01-01T02:30:38;15.60;99.90
14682;DHT22;7429;52.498;13.480;2023-01-01T02:33:46;15.60;99.90
14682;DHT22;7429;52.498;13.480;2023-01-01T02:36:53;15.50;99.90
14682;DHT22;7429;52.498;13.480;2023-01-01T02:39:59;15.50;99.90
14682;DHT22;7429;52.498;13.480;2023-01-01T02:43:04;15.50;99.90
14682;DHT22;7429;52.498;13.480;2023-01-01T02:46:10;15.50;99.90
14682;DHT22;7429;52.498;13.480;2023-01-01T02:49:13;15.40;99.90
14682;DHT22;7429;52.498;13.480;2023-01-01T02:52:29;15.30;99.90
14682;DHT22;7429;52.498;13.480;2023-01-01T02:55:53;15.30;99.90
14682;DHT22;7429;52.498;13.480;2023-01-01T02:59:12;15.30;99.90
14682;DHT22;7429;52.498;13.480;2023-01-01T03:02:51;15.30;99.90
14682;DHT22;7429;52.498;13.480;2023-01-01T03:06:06;15.10;99.90
14682;DHT22;7429;52.498;13.480;2023-01-01T03:09:31;15.10;99.90
14682;DHT22;7429;52.498;13.480;2023-01-01T03:12:41;15.10;99.90
14682;DHT22;7429;52.498;13.480;2023-01-01T03:15:53;15.10;99.90
14682;DHT22;7429;52.498;13.480;2023-01-01T03:19:04;15.10;99.90
14682;DHT22;7429;52.498;13.480;2023-01-01T03:22:20;15.20;99.90
14682;DHT22;7429;52.498;13.480;2023-01-01T03:25:39;15.20;99.90
14682;DHT22;7429;52.498;13.480;2023-01-01T03:28:48;15.20;99.90
14682;DHT22;7429;52.498;13.480;2023-01-01T03:31:56;15.20;99.90
14682;DHT22;7429;52.498;13.480;2023-01-01T03:35:02;15.20;99.90
14682;DHT22;7429;52.498;13.480;2023-01-01T03:38:09;15.10;99.90
14682;DHT22;7429;52.498;13.480;2023-01-01T03:41:20;15.10;99.90
14682;DHT22;7429;52.498;13.480;2023-01-01T03:44:29;15.00;99.90
14682;DHT22;7429;52.498;13.480;2023-01-01T03:47:35;15.00;99.90
14682;DHT22;7429;52.498;13.480;2023-01-01T03:50:48;15.00;99.90
14682;DHT22;7429;52.498;13.480;2023-01-01T03:53:59;14.90;99.90
14682;DHT22;7429;52.498;13.480;2023-01-01T03:57:09;14.90;99.90
14682;DHT22;7429;52.498;13.480;2023-01-01T04:00:17;14.90;99.90
14682;DHT22;7429;52.498;13.480;2023-01-01T04:03:24;14.90;99.90
14682;DHT22;7429;52.498;13.480;2023-01-01T04:06:32;15.00;99.90
14682;DHT22;7429;52.498;13.480;2023-01-01T04:09:37;14.80;99.90
14682;DHT22;7429;52.498;13.480;2023-01-01T04:12:42;14.80;99.90
14682;DHT22;7429;52.498;13.480;2023-01-01T04:15:46;14.80;99.90
14682;DHT22;7429;52.498;13.480;2023-01-01T04:18:49;14.80;99.90
14682;DHT22;7429;52.498;13.480;2023-01-01T04:21:54;14.80;99.90
14682;DHT22;7429;52.498;13.480;2023-01-01T04:24:57;14.80;99.90
14682;DHT22;7429;52.498;13.480;2023-01-01T04:28:00;14.90;99.90
14682;DHT22;7429;52.498;13.480;2023-01-01T04:31:04;14.80;99.90
14682;DHT22;7429;52.498;13.480;2023-01-01T04:34:08;14.80;99.90
14682;DHT22;7429;52.498;13.480;2023-01-01T04:37:12;14.80;99.90
14682;DHT22;7429;52.498;13.480;2023-01-01T04:40:16;14.80;99.90
14682;DHT22;7429;52.498;13.480;2023-01-01T04:43:19;14.80;99.90
14682;DHT22;7429;52.498;13.480;2023-01-01T04:46:23;14.70;99.90
14682;DHT22;7429;52.498;13.480;2023-01-01T04:49:26;14.70;99.90
14682;DHT22;7429;52.498;13.480;2023-01-01T04:52:31;14.70;99.90
14682;DHT22;7429;52.498;13.480;2023-01-01T04:55:34;14.70;99.90
14682;DHT22;7429;52.498;13.480;2023-01-01T04:58:38;14.70;99.90
14682;DHT22;7429;52.498;13.480;2023-01-01T05:01:43;14.70;99.90
14682;DHT22;7429;52.498;13.480;2023-01-01T05:04:46;14.80;99.90
14682;DHT22;7429;52.498;13.480;2023-01-01T05:07:50;14.80;99.90
14682;DHT22;7429;52.498;13.480;2023-01-01T05:10:59;14.70;99.90
14682;DHT22;7429;52.498;13.480;2023-01-01T05:14:07;14.60;99.90
14682;DHT22;7429;52.498;13.480;2023-01-01T05:17:10;14.70;99.90
14682;DHT22;7429;52.498;13.480;2023-01-01T05:20:14;14.70;99.90
14682;DHT22;7429;52.498;13.480;2023-01-01T05:23:18;14.80;99.90
14682;DHT22;7429;52.498;13.480;2023-01-01T05:26:24;14.80;99.90
14682;DHT22;7429;52.498;13.480;2023-01-01T05:29:29;14.80;99.90
14682;DHT22;7429;52.498;13.480;2023-01-01T05:32:32;14.80;99.90
14682;DHT22;7429;52.498;13.480;2023-01-01T05:35:35;14.70;99.90
14682;DHT22;7429;52.498;13.480;2023-01-01T05:38:39;14.70;99.90
14682;DHT22;7429;52.498;13.480;2023-01-01T05:41:42;14.70;99.90
14682;DHT22;7429;52.498;13.480;2023-01-01T05:44:45;14.70;99.90
14682;DHT22;7429;52.498;13.480;2023-01-01T05:47:51;14.60;99.90
14682;DHT22;7429;52.498;13.480;2023-01-01T05:51:01;14.50;99.90
14682;DHT22;7429;52.498;13.480;2023-01-01T05:54:09;14.50;99.90
14682;DHT22;7429;52.498;13.480;2023-01-01T05:57:11;14.40;99.90
14682;DHT22;7429;52.498;13.480;2023-01-01T06:00:16;14.30;99.90
14682;DHT22;7429;52.498;13.480;2023-01-01T06:03:19;14.30;99.90
14682;DHT22;7429;52.498;13.480;2023-01-01T06:06:25;14.20;99.90
14682;DHT22;7429;52.498;13.480;2023-01-01T06:09:30;14.10;99.90
14682;DHT22;7429;52.498;13.480;2023-01-01T06:12:34;14.10;99.90
14682;DHT22;7429;52.498;13.480;2023-01-01T06:15:37;14.10;99.90
14682;DHT22;7429;52.498;13.480;2023-01-01T06:18:40;14.00;99.90
14682;DHT22;7429;52.498;13.480;2023-01-01T06:21:43;14.10;99.90
14682;DHT22;7429;52.498;13.480;2023-01-01T06:24:47;14.10;99.90
14682;DHT22;7429;52.498;13.480;2023-01-01T06:27:51;14.20;99.90
14682;DHT22;7429;52.498;13.480;2023-01-01T06:30:54;14.20;99.90
14682;DHT22;7429;52.498;13.480;2023-01-01T06:34:01;14.20;99.90
14682;DHT22;7429;52.498;13.480;2023-01-01T06:37:04;14.20;99.90
14682;DHT22;7429;52.498;13.480;2023-01-01T06:40:10;14.20;99.90
14682;DHT22;7429;52.498;13.480;2023-01-01T06:43:13;14.20;99.90
14682;DHT22;7429;52.498;13.480;2023-01-01T06:46:18;14.20;99.90
14682;DHT22;7429;52.498;13.480;2023-01-01T06:49:22;14.20;99.90
14682;DHT22;7429;52.498;13.480;2023-01-01T06:52:26;14.20;99.90
14682;DHT22;7429;52.498;13.480;2023-01-01T06:55:30;14.20;99.90
14682;DHT22;7429;52.498;13.480;2023-01-01T06:58:34;14.20;99.90
14682;DHT22;7429;52.498;13.480;2023-01-01T07:01:38;14.10;99.90
14682;DHT22;7429;52.498;13.480;2023-01-01T07:04:46;14.20;99.90
14682;DHT22;7429;52.498;13.480;2023-01-01T07:07:49;14.30;99.90
14682;DHT22;7429;52.498;13.480;2023-01-01T07:10:53;14.30;99.90
14682;DHT22;7429;52.498;13.480;2023-01-01T07:13:58;14.30;99.90
14682;DHT22;7429;52.498;13.480;2023-01-01T07:17:01;14.30;99.90
14682;DHT22;7429;52.498;13.480;2023-01-01T07:20:05;14.30;99.90
14682;DHT22;7429;52.498;13.480;2023-01-01T07:23:10;14.30;99.90
14682;DHT22;7429;52.498;13.480;2023-01-01T07:26:14;14.30;99.90
14682;DHT22;7429;52.498;13.480;2023-01-01T07:29:17;14.30;99.90
14682;DHT22;7429;52.498;13.480;2023-01-01T07:32:23;14.40;99.90
14682;DHT22;7429;52.498;13.480;2023-01-01T07:35:26;14.50;99.90
14682;DHT22;7429;52.498;13.480;2023-01-01T07:38:29;14.40;99.90
14682;DHT22;7429;52.498;13.480;2023-01-01T07:41:33;14.40;99.90
14682;DHT22;7429;52.498;13.480;2023-01-01T07:44:37;14.40;99.90
14682;DHT22;7429;52.498;13.480;2023-01-01T07:47:40;14.50;99.90
14682;DHT22;7429;52.498;13.480;2023-01-01T07:50:43;14.50;99.90
14682;DHT22;7429;52.498;13.480;2023-01-01T07:53:46;14.50;99.90
14682;DHT22;7429;52.498;13.480;2023-01-01T07:56:50;14.50;99.90
14682;DHT22;7429;52.498;13.480;2023-01-01T07:59:53;14.50;99.90
14682;DHT22;7429;52.498;13.480;2023-01-01T08:02:57;14.60;99.90
14682;DHT22;7429;52.498;13.480;2023-01-01T08:06:06;14.60;99.90
14682;DHT22;7429;52.498;13.480;2023-01-01T08:09:10;14.60;99.90
14682;DHT22;7429;52.498;13.480;2023-01-01T08:12:15;14.60;99.90
14682;DHT22;7429;52.498;13.480;2023-01-01T08:15:18;14.70;99.90
14682;DHT22;7429;52.498;13.480;2023-01-01T08:18:22;14.70;99.90
14682;DHT22;7429;52.498;13.480;2023-01-01T08:21:25;14.70;99.90
14682;DHT22;7429;52.498;13.480;2023-01-01T08:24:28;14.70;99.90
14682;DHT22;7429;52.498;13.480;2023-01-01T08:27:33;14.70;99.90
14682;DHT22;7429;52.498;13.480;2023-01-01T08:30:36;14.70;99.90
14682;DHT22;7429;52.498;13.480;2023-01-01T08:33:41;14.70;99.90
14682;DHT22;7429;52.498;13.480;2023-01-01T08:36:47;14.70;99.90
14682;DHT22;7429;52.498;13.480;2023-01-01T08:39:51;14.80;99.90
14682;DHT22;7429;52.498;13.480;2023-01-01T08:42:56;14.80;99.90
14682;DHT22;7429;52.498;13.480;2023-01-01T08:45:59;14.80;99.90
14682;DHT22;7429;52.498;13.480;2023-01-01T08:49:03;14.80;99.90
14682;DHT22;7429;52.498;13.480;2023-01-01T08:52:06;14.80;99.90
14682;DHT22;7429;52.498;13.480;2023-01-01T08:55:09;14.90;99.90
14682;DHT22;7429;52.498;13.480;2023-01-01T08:58:14;14.90;99.90
14682;DHT22;7429;52.498;13.480;2023-01-01T09:01:17;14.90;99.90
14682;DHT22;7429;52.498;13.480;2023-01-01T09:04:23;15.00;99.90
14682;DHT22;7429;52.498;13.480;2023-01-01T09:07:26;15.00;99.90
14682;DHT22;7429;52.498;13.480;2023-01-01T09:10:29;15.00;99.90
14682;DHT22;7429;52.498;13.480;2023-01-01T09:13:34;15.00;99.90
14682;DHT22;7429;52.498;13.480;2023-01-01T09:16:37;15.10;99.90
14682;DHT22;7429;52.498;13.480;2023-01-01T09:19:45;15.10;99.90
14682;DHT22;7429;52.498;13.480;2023-01-01T09:22:48;15.10;99.90
14682;DHT22;7429;52.498;13.480;2023-01-01T09:25:51;15.10;99.90
14682;DHT22;7429;52.498;13.480;2023-01-01T09:28:56;15.10;99.90
14682;DHT22;7429;52.498;13.480;2023-01-01T09:31:59;15.20;99.90
14682;DHT22;7429;52.498;13.480;2023-01-01T09:35:03;15.20;99.90
14682;DHT22;7429;52.498;13.480;2023-01-01T09:38:07;15.20;99.90
14682;DHT22;7429;52.498;13.480;2023-01-01T09:41:18;15.10;99.90
14682;DHT22;7429;52.498;13.480;2023-01-01T09:48:18;15.20;99.90
14682;DHT22;7429;52.498;13.480;2023-01-01T09:51:23;15.20;99.90
14682;DHT22;7429;52.498;13.480;2023-01-01T09:54:29;15.20;99.90
14682;DHT22;7429;52.498;13.480;2023-01-01T09:57:34;15.30;99.90
14682;DHT22;7429;52.498;13.480;2023-01-01T10:00:41;15.30;99.90
14682;DHT22;7429;52.498;13.480;2023-01-01T10:03:47;15.40;99.90
14682;DHT22;7429;52.498;13.480;2023-01-01T10:07:00;15.40;99.90
14682;DHT22;7429;52.498;13.480;2023-01-01T10:10:12;15.50;99.90
14682;DHT22;7429;52.498;13.480;2023-01-01T10:13:30;15.50;99.90
14682;DHT22;7429;52.498;13.480;2023-01-01T10:16:39;15.50;99.90
14682;DHT22;7429;52.498;13.480;2023-01-01T10:19:49;15.60;99.90
14682;DHT22;7429;52.498;13.480;2023-01-01T10:22:58;15.60;99.90
14682;DHT22;7429;52.498;13.480;2023-01-01T10:26:10;15.60;99.90
14682;DHT22;7429;52.498;13.480;2023-01-01T10:29:19;15.70;99.90
14682;DHT22;7429;52.498;13.480;2023-01-01T10:32:28;15.70;99.90
14682;DHT22;7429;52.498;13.480;2023-01-01T10:35:34;15.70;99.90
14682;DHT22;7429;52.498;13.480;2023-01-01T10:38:41;15.70;99.90
14682;DHT22;7429;52.498;13.480;2023-01-01T10:41:44;15.80;99.90
14682;DHT22;7429;52.498;13.480;2023-01-01T10:44:51;15.70;99.90
14682;DHT22;7429;52.498;13.480;2023-01-01T10:48:13;15.80;99.90
14682;DHT22;7429;52.498;13.480;2023-01-01T10:51:18;15.70;99.90
14682;DHT22;7429;52.498;13.480;2023-01-01T10:54:32;15.70;99.90
14682;DHT22;7429;52.498;13.480;2023-01-01T10:57:37;15.80;99.90
14682;DHT22;7429;52.498;13.480;2023-01-01T11:00:41;15.80;99.90
14682;DHT22;7429;52.498;13.480;2023-01-01T11:03:57;15.70;99.90
14682;DHT22;7429;52.498;13.480;2023-01-01T11:07:05;15.80;99.90
14682;DHT22;7429;52.498;13.480;2023-01-01T11:10:18;15.80;99.90
14682;DHT22;7429;52.498;13.480;2023-01-01T11:13:22;15.80;99.90
14682;DHT22;7429;52.498;13.480;2023-01-01T11:16:26;15.70;99.90
14682;DHT22;7429;52.498;13.480;2023-01-01T11:19:33;15.80;99.90
14682;DHT22;7429;52.498;13.480;2023-01-01T11:22:39;15.80;99.90
14682;DHT22;7429;52.498;13.480;2023-01-01T11:25:59;15.80;99.90
14682;DHT22;7429;52.498;13.480;2023-01-01T11:29:18;15.80;99.90
14682;DHT22;7429;52.498;13.480;2023-01-01T11:32:29;15.80;99.90
14682;DHT22;7429;52.498;13.480;2023-01-01T11:35:47;15.80;99.90
14682;DHT22;7429;52.498;13.480;2023-01-01T11:39:05;15.90;99.90
14682;DHT22;7429;52.498;13.480;2023-01-01T11:42:19;15.80;99.90
14682;DHT22;7429;52.498;13.480;2023-01-01T11:45:26;15.80;99.90
14682;DHT22;7429;52.498;13.480;2023-01-01T11:48:41;15.80;99.90
14682;DHT22;7429;52.498;13.480;2023-01-01T11:51:46;15.80;99.90
14682;DHT22;7429;52.498;13.480;2023-01-01T11:54:49;15.90;99.90
14682;DHT22;7429;52.498;13.480;2023-01-01T11:58:00;15.90;99.90
14682;DHT22;7429;52.498;13.480;2023-01-01T12:01:12;16.00;99.90
14682;DHT22;7429;52.498;13.480;2023-01-01T12:04:19;15.90;99.90
14682;DHT22;7429;52.498;13.480;2023-01-01T12:07:30;16.00;99.90
14682;DHT22;7429;52.498;13.480;2023-01-01T12:10:43;16.00;99.90
14682;DHT22;7429;52.498;13.480;2023-01-01T12:13:52;16.00;99.90
14682;DHT22;7429;52.498;13.480;2023-01-01T12:17:00;16.00;99.90
14682;DHT22;7429;52.498;13.480;2023-01-01T12:20:11;16.00;99.90
14682;DHT22;7429;52.498;13.480;2023-01-01T12:23:18;16.00;99.90
14682;DHT22;7429;52.498;13.480;2023-01-01T12:26:23;16.10;99.90
14682;DHT22;7429;52.498;13.480;2023-01-01T12:29:50;16.10;99.90
14682;DHT22;7429;52.498;13.480;2023-01-01T12:33:21;16.10;99.90
14682;DHT22;7429;52.498;13.480;2023-01-01T12:36:38;16.00;99.90
14682;DHT22;7429;52.498;13.480;2023-01-01T12:43:54;16.00;99.90
14682;DHT22;7429;52.498;13.480;2023-01-01T12:47:06;15.90;99.90
14682;DHT22;7429;52.498;13.480;2023-01-01T12:50:21;15.90;99.90
14682;DHT22;7429;52.498;13.480;2023-01-01T12:53:43;15.80;99.90
14682;DHT22;7429;52.498;13.480;2023-01-01T12:56:56;15.80;99.90
14682;DHT22;7429;52.498;13.480;2023-01-01T13:00:11;15.80;99.90
14682;DHT22;7429;52.498;13.480;2023-01-01T13:03:18;15.80;99.90
14682;DHT22;7429;52.498;13.480;2023-01-01T13:06:30;15.80;99.90
14682;DHT22;7429;52.498;13.480;2023-01-01T13:09:40;15.80;99.90
14682;DHT22;7429;52.498;13.480;2023-01-01T13:12:48;15.80;99.90
14682;DHT22;7429;52.498;13.480;2023-01-01T13:15:53;15.70;99.90
14682;DHT22;7429;52.498;13.480;2023-01-01T13:18:57;15.70;99.90
14682;DHT22;7429;52.498;13.480;2023-01-01T13:22:33;15.60;99.90
14682;DHT22;7429;52.498;13.480;2023-01-01T13:25:39;15.60;99.90
14682;DHT22;7429;52.498;13.480;2023-01-01T13:33:15;15.50;99.90
14682;DHT22;7429;52.498;13.480;2023-01-01T13:36:30;15.50;99.90
14682;DHT22;7429;52.498;13.480;2023-01-01T13:39:53;15.50;99.90
14682;DHT22;7429;52.498;13.480;2023-01-01T13:43:04;15.40;99.90
14682;DHT22;7429;52.498;13.480;2023-01-01T13:46:23;15.40;99.90
14682;DHT22;7429;52.498;13.480;2023-01-01T13:49:44;15.40;99.90
14682;DHT22;7429;52.498;13.480;2023-01-01T13:53:19;15.40;99.90
14682;DHT22;7429;52.498;13.480;2023-01-01T13:56:36;15.40;99.90
14682;DHT22;7429;52.498;13.480;2023-01-01T13:59:53;15.40;99.90
14682;DHT22;7429;52.498;13.480;2023-01-01T14:03:16;15.30;99.90
14682;DHT22;7429;52.498;13.480;2023-01-01T14:06:27;15.30;99.90
14682;DHT22;7429;52.498;13.480;2023-01-01T14:09:33;15.20;99.90
14682;DHT22;7429;52.498;13.480;2023-01-01T14:12:37;15.20;99.90
14682;DHT22;7429;52.498;13.480;2023-01-01T14:15:48;15.20;99.90
14682;DHT22;7429;52.498;13.480;2023-01-01T14:18:59;15.20;99.90
14682;DHT22;7429;52.498;13.480;2023-01-01T14:22:05;15.10;99.90
14682;DHT22;7429;52.498;13.480;2023-01-01T14:25:13;15.10;99.90
14682;DHT22;7429;52.498;13.480;2023-01-01T14:28:21;15.00;99.90
14682;DHT22;7429;52.498;13.480;2023-01-01T14:31:28;14.90;99.90
14682;DHT22;7429;52.498;13.480;2023-01-01T14:34:34;14.90;99.90
14682;DHT22;7429;52.498;13.480;2023-01-01T14:37:37;14.80;99.90
14682;DHT22;7429;52.498;13.480;2023-01-01T14:40:41;14.80;99.90
14682;DHT22;7429;52.498;13.480;2023-01-01T14:43:45;14.80;99.90
14682;DHT22;7429;52.498;13.480;2023-01-01T14:46:51;14.70;99.90
14682;DHT22;7429;52.498;13.480;2023-01-01T14:50:00;14.70;99.90
14682;DHT22;7429;52.498;13.480;2023-01-01T14:53:08;14.60;99.90
14682;DHT22;7429;52.498;13.480;2023-01-01T14:56:27;14.60;99.90
14682;DHT22;7429;52.498;13.480;2023-01-01T14:59:32;14.60;99.90
14682;DHT22;7429;52.498;13.480;2023-01-01T15:02:39;14.50;99.90
14682;DHT22;7429;52.498;13.480;2023-01-01T15:05:45;14.40;99.90
14682;DHT22;7429;52.498;13.480;2023-01-01T15:08:49;14.40;99.90
14682;DHT22;7429;52.498;13.480;2023-01-01T15:11:54;14.40;99.90
14682;DHT22;7429;52.498;13.480;2023-01-01T15:14:58;14.30;99.90
14682;DHT22;7429;52.498;13.480;2023-01-01T15:18:02;14.10;99.90
14682;DHT22;7429;52.498;13.480;2023-01-01T15:21:13;14.10;99.90
14682;DHT22;7429;52.498;13.480;2023-01-01T15:24:21;14.10;99.90
14682;DHT22;7429;52.498;13.480;2023-01-01T15:27:32;14.10;99.90
14682;DHT22;7429;52.498;13.480;2023-01-01T15:30:37;14.10;99.90
14682;DHT22;7429;52.498;13.480;2023-01-01T15:33:45;14.10;99.90
14682;DHT22;7429;52.498;13.480;2023-01-01T15:36:52;14.20;99.90
14682;DHT22;7429;52.498;13.480;2023-01-01T15:39:58;14.20;99.90
14682;DHT22;7429;52.498;13.480;2023-01-01T15:43:18;14.20;99.90
14682;DHT22;7429;52.498;13.480;2023-01-01T15:46:22;14.20;99.90
14682;DHT22;7429;52.498;13.480;2023-01-01T15:49:33;14.20;99.90
14682;DHT22;7429;52.498;13.480;2023-01-01T15:52:38;14.10;99.90
14682;DHT22;7429;52.498;13.480;2023-01-01T15:55:48;14.10;99.90
14682;DHT22;7429;52.498;13.480;2023-01-01T15:58:58;14.10;99.90
14682;DHT22;7429;52.498;13.480;2023-01-01T16:02:13;14.00;99.90
14682;DHT22;7429;52.498;13.480;2023-01-01T16:05:21;13.90;99.90
14682;DHT22;7429;52.498;13.480;2023-01-01T16:08:27;13.80;99.90
14682;DHT22;7429;52.498;13.480;2023-01-01T16:11:31;13.70;99.90
14682;DHT22;7429;52.498;13.480;2023-01-01T16:14:35;13.60;99.90
14682;DHT22;7429;52.498;13.480;2023-01-01T16:17:38;13.50;99.90
14682;DHT22;7429;52.498;13.480;2023-01-01T16:20:41;13.50;99.90
14682;DHT22;7429;52.498;13.480;2023-01-01T16:23:46;13.50;99.90
14682;DHT22;7429;52.498;13.480;2023-01-01T16:26:49;13.40;99.90
14682;DHT22;7429;52.498;13.480;2023-01-01T16:29:52;13.50;99.90
14682;DHT22;7429;52.498;13.480;2023-01-01T16:32:55;13.50;99.90
14682;DHT22;7429;52.498;13.480;2023-01-01T16:35:59;13.40;99.90
14682;DHT22;7429;52.498;13.480;2023-01-01T16:39:03;13.40;99.90
14682;DHT22;7429;52.498;13.480;2023-01-01T16:42:09;13.30;99.90
14682;DHT22;7429;52.498;13.480;2023-01-01T16:45:16;13.20;99.90
14682;DHT22;7429;52.498;13.480;2023-01-01T16:48:20;13.10;99.90
14682;DHT22;7429;52.498;13.480;2023-01-01T16:51:26;12.80;99.90
14682;DHT22;7429;52.498;13.480;2023-01-01T16:54:31;12.70;99.90
14682;DHT22;7429;52.498;13.480;2023-01-01T16:57:35;12.60;99.90
14682;DHT22;7429;52.498;13.480;2023-01-01T17:00:40;12.60;99.90
14682;DHT22;7429;52.498;13.480;2023-01-01T17:03:44;12.50;99.90
14682;DHT22;7429;52.498;13.480;2023-01-01T17:06:49;12.40;99.90
14682;DHT22;7429;52.498;13.480;2023-01-01T17:09:53;12.40;99.90
14682;DHT22;7429;52.498;13.480;2023-01-01T17:12:56;12.30;99.90
14682;DHT22;7429;52.498;13.480;2023-01-01T17:16:03;12.30;99.90
14682;DHT22;7429;52.498;13.480;2023-01-01T17:19:08;12.20;99.90
14682;DHT22;7429;52.498;13.480;2023-01-01T17:22:17;12.20;99.90
14682;DHT22;7429;52.498;13.480;2023-01-01T17:25:23;12.20;99.90
14682;DHT22;7429;52.498;13.480;2023-01-01T17:28:26;12.10;99.90
14682;DHT22;7429;52.498;13.480;2023-01-01T17:31:30;12.00;99.90
14682;DHT22;7429;52.498;13.480;2023-01-01T17:34:33;12.10;99.90
14682;DHT22;7429;52.498;13.480;2023-01-01T17:37:36;12.10;99.90
14682;DHT22;7429;52.498;13.480;2023-01-01T17:40:40;12.10;99.90
14682;DHT22;7429;52.498;13.480;2023-01-01T17:43:45;12.00;99.90
14682;DHT22;7429;52.498;13.480;2023-01-01T17:46:50;12.00;99.90
14682;DHT22;7429;52.498;13.480;2023-01-01T17:49:56;12.00;99.90
14682;DHT22;7429;52.498;13.480;2023-01-01T17:52:59;11.90;99.90
14682;DHT22;7429;52.498;13.480;2023-01-01T17:56:04;11.90;99.90
14682;DHT22;7429;52.498;13.480;2023-01-01T17:59:07;11.80;99.90
14682;DHT22;7429;52.498;13.480;2023-01-01T18:02:12;11.80;99.90
14682;DHT22;7429;52.498;13.480;2023-01-01T18:05:15;11.70;99.90
14682;DHT22;7429;52.498;13.480;2023-01-01T18:08:19;11.80;99.90
14682;DHT22;7429;52.498;13.480;2023-01-01T18:11:24;11.70;99.90
14682;DHT22;7429;52.498;13.480;2023-01-01T18:14:28;11.70;99.90
14682;DHT22;7429;52.498;13.480;2023-01-01T18:17:32;11.70;99.90
14682;DHT22;7429;52.498;13.480;2023-01-01T18:20:36;11.60;99.90
14682;DHT22;7429;52.498;13.480;2023-01-01T18:23:40;11.60;99.90
14682;DHT22;7429;52.498;13.480;2023-01-01T18:26:45;11.60;99.90
14682;DHT22;7429;52.498;13.480;2023-01-01T18:29:49;11.60;99.90
14682;DHT22;7429;52.498;13.480;2023-01-01T18:32:52;11.50;99.90
14682;DHT22;7429;52.498;13.480;2023-01-01T18:35:56;11.50;99.90
14682;DHT22;7429;52.498;13.480;2023-01-01T18:39:00;11.50;99.90
14682;DHT22;7429;52.498;13.480;2023-01-01T18:42:27;11.40;99.90
14682;DHT22;7429;52.498;13.480;2023-01-01T18:45:36;11.40;99.90
14682;DHT22;7429;52.498;13.480;2023-01-01T18:48:42;11.30;99.90
14682;DHT22;7429;52.498;13.480;2023-01-01T18:51:47;11.20;99.90
14682;DHT22;7429;52.498;13.480;2023-01-01T18:55:02;11.10;99.90
14682;DHT22;7429;52.498;13.480;2023-01-01T18:58:16;11.10;99.90
14682;DHT22;7429;52.498;13.480;2023-01-01T19:01:22;11.00;99.90
14682;DHT22;7429;52.498;13.480;2023-01-01T19:04:26;11.00;99.90
14682;DHT22;7429;52.498;13.480;2023-01-01T19:07:29;11.00;99.90
14682;DHT22;7429;52.498;13.480;2023-01-01T19:10:35;11.10;99.90
14682;DHT22;7429;52.498;13.480;2023-01-01T19:13:41;11.00;99.90
14682;DHT22;7429;52.498;13.480;2023-01-01T19:16:46;10.90;99.90
14682;DHT22;7429;52.498;13.480;2023-01-01T19:19:50;10.80;99.90
14682;DHT22;7429;52.498;13.480;2023-01-01T19:22:54;10.80;99.90
14682;DHT22;7429;52.498;13.480;2023-01-01T19:26:01;10.80;99.90
14682;DHT22;7429;52.498;13.480;2023-01-01T19:29:13;10.80;99.90
14682;DHT22;7429;52.498;13.480;2023-01-01T19:32:17;10.70;99.90
14682;DHT22;7429;52.498;13.480;2023-01-01T19:35:22;10.70;99.90
14682;DHT22;7429;52.498;13.480;2023-01-01T19:38:25;10.70;99.90
14682;DHT22;7429;52.498;13.480;2023-01-01T19:41:28;10.80;99.90
14682;DHT22;7429;52.498;13.480;2023-01-01T19:44:34;10.80;99.90
14682;DHT22;7429;52.498;13.480;2023-01-01T19:47:39;10.90;99.90
14682;DHT22;7429;52.498;13.480;2023-01-01T19:50:44;10.90;99.90
14682;DHT22;7429;52.498;13.480;2023-01-01T19:53:51;11.00;99.90